createdAt,value
2022-08-22T00:01:38.066Z,11.68
2022-08-22T00:06:52.704Z,12.25
2022-08-22T00:17:49.347Z,13.43
2022-08-22T00:22:52.550Z,12.77
2022-08-22T00:27:54.909Z,11.48
2022-08-22T00:32:53.756Z,11.73
2022-08-22T00:37:54.772Z,12.20
2022-08-22T00:43:21.253Z,12.57
2022-08-22T00:48:36.647Z,11.68
2022-08-22T00:53:51.334Z,11.88
2022-08-22T00:59:22.989Z,11.90
2022-08-22T01:04:49.856Z,12.48
2022-08-22T01:10:01.452Z,11.02
2022-08-22T01:14:59.473Z,10.88
2022-08-22T01:20:40.468Z,11.73
2022-08-22T01:31:35.011Z,11.20
2022-08-22T01:36:55.758Z,11.70
2022-08-22T01:42:32.930Z,11.23
2022-08-22T01:47:36.634Z,11.38
2022-08-22T01:52:38.766Z,11.32
2022-08-22T01:57:32.181Z,10.68
2022-08-22T02:02:44.742Z,10.82
2022-08-22T02:07:50.117Z,11.30
2022-08-22T02:12:49.169Z,10.80
2022-08-22T02:18:01.100Z,11.85
2022-08-22T02:23:01.869Z,11.43
2022-08-22T02:28:02.569Z,11.63
2022-08-22T02:33:04.395Z,11.95
2022-08-22T02:38:13.394Z,11.55
2022-08-22T02:43:18.255Z,11.37
2022-08-22T02:48:21.335Z,12.23
2022-08-22T02:53:24.712Z,11.32
2022-08-22T02:58:36.993Z,11.93
2022-08-22T03:03:37.375Z,11.63
2022-08-22T03:08:38.431Z,11.73
2022-08-22T03:13:45.936Z,11.60
2022-08-22T03:18:50.008Z,12.10
2022-08-22T03:23:53.760Z,11.95
2022-08-22T03:29:03.082Z,12.85
2022-08-22T03:34:26.727Z,12.40
2022-08-22T03:39:49.296Z,12.55
2022-08-22T03:45:09.412Z,12.07
2022-08-22T03:50:34.483Z,12.27
2022-08-22T03:55:47.767Z,12.70
2022-08-22T04:01:16.117Z,13.30
2022-08-22T04:06:37.976Z,13.32
2022-08-22T04:12:13.848Z,12.07
2022-08-22T04:17:32.361Z,12.05
2022-08-22T04:22:50.984Z,12.02
2022-08-22T04:27:56.039Z,11.90
2022-08-22T04:32:58.004Z,12.05
2022-08-22T04:37:58.833Z,12.00
2022-08-22T04:42:58.330Z,11.25
2022-08-22T04:47:59.457Z,12.30
2022-08-22T04:53:11.401Z,11.15
2022-08-22T04:58:19.070Z,11.38
2022-08-22T05:03:18.020Z,10.55
2022-08-22T05:08:15.195Z,12.05
2022-08-22T05:13:14.407Z,26.17
2022-08-22T05:18:10.795Z,23.27
2022-08-22T05:23:17.528Z,13.00
2022-08-22T05:28:16.928Z,11.23
2022-08-22T05:33:24.182Z,11.32
2022-08-22T05:38:23.634Z,11.68
2022-08-22T05:43:21.251Z,11.55
2022-08-22T05:48:26.049Z,9.93
2022-08-22T05:53:33.132Z,10.20
2022-08-22T05:58:49.745Z,9.07
2022-08-22T06:03:59.962Z,9.00
2022-08-22T06:09:06.055Z,10.00
2022-08-22T06:14:13.004Z,10.15
2022-08-22T06:19:19.500Z,10.10
2022-08-22T06:24:29.766Z,9.98
2022-08-22T06:29:33.897Z,9.90
2022-08-22T06:34:35.974Z,10.63
2022-08-22T06:39:37.307Z,9.38
2022-08-22T06:44:51.969Z,10.38
2022-08-22T06:50:01.779Z,10.18
2022-08-22T06:55:33.471Z,9.95
2022-08-22T07:00:52.413Z,10.23
2022-08-22T07:05:59.280Z,9.63
2022-08-22T07:11:00.037Z,9.38
2022-08-22T07:16:02.475Z,8.85
2022-08-22T07:21:00.446Z,9.63
2022-08-22T07:26:02.934Z,9.30
2022-08-22T07:30:59.277Z,9.38
2022-08-22T07:36:16.334Z,9.15
2022-08-22T07:41:20.294Z,9.65
2022-08-22T07:46:34.464Z,9.82
2022-08-22T07:51:35.909Z,8.85
2022-08-22T07:56:36.571Z,9.30
2022-08-22T08:01:31.371Z,9.65
2022-08-22T08:07:41.570Z,8.88
2022-08-22T08:13:06.674Z,8.77
2022-08-22T08:20:27.418Z,8.55
2022-08-22T08:24:40.537Z,8.18
2022-08-22T08:29:39.185Z,7.75
2022-08-22T08:40:37.751Z,8.05
2022-08-22T08:46:02.848Z,7.53
2022-08-22T08:51:18.404Z,6.95
2022-08-22T08:56:33.116Z,7.70
2022-08-22T09:01:54.023Z,6.68
2022-08-22T09:07:19.921Z,7.45
2022-08-22T09:12:32.512Z,8.48
2022-08-22T09:18:07.561Z,7.40
2022-08-22T09:23:53.436Z,8.40
2022-08-22T09:29:02.461Z,6.80
2022-08-22T09:34:08.325Z,7.70
2022-08-22T09:39:16.072Z,7.22
2022-08-22T09:44:25.474Z,6.90
2022-08-22T10:02:45.030Z,6.90
2022-08-22T10:08:19.732Z,6.93
2022-08-22T10:26:22.822Z,7.32
2022-08-22T10:31:46.053Z,6.85
2022-08-22T10:42:41.690Z,7.00
2022-08-22T10:48:57.589Z,7.28
2022-08-22T10:54:43.496Z,7.03
2022-08-22T11:06:22.812Z,6.10
2022-08-22T11:11:48.258Z,6.53
2022-08-22T11:17:40.631Z,6.40
2022-08-22T11:23:34.984Z,7.15
2022-08-22T11:29:33.161Z,6.82
2022-08-22T11:34:49.069Z,6.10
2022-08-22T11:40:11.876Z,6.35
2022-08-22T11:45:22.281Z,6.05
2022-08-22T11:50:29.689Z,5.22
2022-08-22T11:55:44.188Z,5.95
2022-08-22T12:01:52.960Z,5.30
2022-08-22T12:07:13.545Z,6.85
2022-08-22T12:13:12.064Z,5.82
2022-08-22T12:19:00.087Z,5.72
2022-08-22T12:24:20.979Z,5.45
2022-08-22T12:29:45.107Z,5.45
2022-08-22T12:35:14.096Z,5.57
2022-08-22T12:40:45.862Z,5.05
2022-08-22T12:47:11.786Z,5.68
2022-08-22T12:52:33.236Z,5.25
2022-08-22T12:57:54.009Z,5.38
2022-08-22T13:08:43.824Z,5.70
2022-08-22T13:13:59.603Z,5.45
2022-08-22T13:19:07.579Z,5.45
2022-08-22T13:24:16.987Z,5.60
2022-08-22T13:29:42.710Z,5.25
2022-08-22T13:34:53.355Z,5.50
2022-08-22T13:40:03.914Z,5.50
2022-08-22T13:45:07.319Z,5.60
2022-08-22T13:50:12.194Z,4.90
2022-08-22T13:55:34.161Z,5.20
2022-08-22T14:01:21.759Z,4.90
2022-08-22T14:06:53.739Z,4.93
2022-08-22T14:18:47.616Z,4.68
2022-08-22T14:23:50.788Z,5.63
2022-08-22T14:29:02.510Z,5.00
2022-08-22T14:34:03.615Z,6.90
2022-08-22T14:39:02.859Z,5.57
2022-08-22T14:44:09.986Z,5.72
2022-08-22T14:49:24.933Z,5.85
2022-08-22T14:54:28.968Z,7.22
2022-08-22T15:00:00.303Z,6.20
2022-08-22T15:05:01.625Z,6.22
2022-08-22T15:10:03.540Z,5.60
2022-08-22T15:15:03.707Z,5.93
2022-08-22T15:20:12.209Z,5.93
2022-08-22T15:25:13.185Z,5.72
2022-08-22T15:30:20.431Z,8.85
2022-08-22T15:36:15.911Z,6.53
2022-08-22T15:41:49.044Z,5.25
2022-08-22T15:47:24.144Z,6.70
2022-08-22T15:52:28.693Z,5.20
2022-08-22T15:57:29.665Z,6.05
2022-08-22T16:02:35.038Z,10.77
2022-08-22T16:07:51.558Z,6.20
2022-08-22T16:13:50.267Z,5.65
2022-08-22T16:19:37.199Z,6.20
2022-08-22T16:25:51.849Z,7.20
2022-08-22T16:44:23.759Z,6.85
2022-08-22T16:50:17.029Z,8.18
2022-08-22T16:56:11.544Z,7.22
2022-08-22T17:13:42.399Z,7.80
2022-08-22T17:19:30.378Z,8.15
2022-08-22T17:39:01.279Z,8.05
2022-08-22T17:46:01.630Z,8.18
2022-08-22T17:51:13.611Z,8.05
2022-08-22T18:23:50.711Z,4.63
2022-08-22T18:35:54.654Z,4.60
2022-08-22T18:41:27.624Z,4.65
2022-08-22T18:52:40.937Z,4.85
2022-08-22T18:58:34.516Z,5.28
2022-08-22T19:10:56.659Z,5.03
2022-08-22T19:16:42.011Z,5.07
2022-08-22T19:22:16.258Z,4.88
2022-08-22T19:27:33.248Z,4.32
2022-08-22T19:33:08.136Z,4.63
2022-08-22T19:38:05.407Z,4.40
2022-08-22T19:43:02.409Z,3.92
2022-08-22T19:48:13.617Z,3.88
2022-08-22T19:53:38.995Z,4.35
2022-08-22T19:58:52.507Z,4.55
2022-08-22T20:04:03.132Z,4.43
2022-08-22T20:09:21.898Z,4.38
2022-08-22T20:14:30.061Z,4.28
2022-08-22T20:19:38.237Z,4.37
2022-08-22T20:24:40.431Z,4.57
2022-08-22T20:29:40.890Z,4.38
2022-08-22T20:34:43.368Z,4.60
2022-08-22T20:39:49.953Z,4.30
2022-08-22T20:44:56.489Z,4.68
2022-08-22T20:49:57.447Z,4.68
2022-08-22T20:55:01.891Z,4.57
2022-08-22T20:59:59.834Z,4.85
2022-08-22T21:05:02.686Z,4.70
2022-08-22T21:10:25.426Z,5.13
2022-08-22T21:15:32.888Z,4.88
2022-08-22T21:20:26.378Z,5.05
2022-08-22T21:25:19.799Z,4.93
2022-08-22T21:30:26.293Z,4.88
2022-08-22T21:35:26.654Z,4.80
2022-08-22T21:40:23.202Z,5.50
2022-08-22T21:45:32.911Z,6.13
2022-08-22T21:50:34.766Z,5.10
2022-08-22T21:55:30.194Z,5.20
2022-08-22T22:00:49.984Z,5.03
2022-08-22T22:05:46.118Z,5.03
2022-08-22T22:10:43.406Z,5.15
2022-08-22T22:15:42.519Z,5.93
2022-08-22T22:20:37.515Z,5.18
2022-08-22T22:25:39.652Z,5.55
2022-08-22T22:30:37.354Z,4.85
2022-08-22T22:35:31.534Z,5.72
2022-08-22T22:40:28.617Z,5.70
2022-08-22T22:45:22.917Z,6.53
2022-08-22T22:50:19.407Z,6.03
2022-08-22T22:55:12.952Z,6.22
2022-08-22T23:00:20.059Z,5.57
2022-08-22T23:05:16.072Z,5.80
2022-08-22T23:10:17.669Z,5.82
2022-08-22T23:15:14.722Z,5.43
2022-08-22T23:20:10.205Z,5.60
2022-08-22T23:25:03.637Z,5.75
2022-08-22T23:30:05.932Z,5.47
2022-08-22T23:34:59.609Z,5.43
2022-08-22T23:39:56.600Z,6.10
2022-08-22T23:44:50.161Z,5.75
2022-08-22T23:49:44.336Z,5.43
2022-08-22T23:54:40.642Z,5.32
2022-08-22T23:59:38.396Z,5.10
